Time;durP1;ratioP1;P1;durP2;ratioP2;P2;SDS_P1;SDS_P2;PMS_P1;PMS_P2;Temp;Humidity;BMP_temperature;BMP_pressure;BME280_temperature;BME280_humidity;BME280_pressure;Samples;Min_cycle;Max_cycle;Signal;HPM_P1;HPM_P2
2023/09/30 00:02:20;;;;;;;;;;;;;;;20.96;28.13;98032.31;4900306;29;938;-76
2023/09/30 00:04:45;;;;;;;;;;;;;;;20.87;28.02;98040.59;4900269;29;1136;-77
2023/09/30 00:07:11;;;;;;;;;;;;;;;20.87;28.44;98026.47;4899308;29;1454;-77
2023/09/30 00:09:37;;;;;;;;;;;;;;;21.03;27.85;98043.47;4943348;29;1910;-77
2023/09/30 00:12:02;;;;;;;;;;;;;;;20.93;28.18;98036.81;4957528;29;1000;-76
2023/09/30 00:14:29;;;;;;;;;;;;;;;20.91;28.02;98039.28;4942568;29;1313;-77
2023/09/30 00:16:55;;;;;;;;;;;;;;;20.79;28.15;98034.34;4938057;29;1018;-76
2023/09/30 00:19:22;;;;;;;;;;;;;;;20.87;28.18;98029.28;4967826;28;1114;-76
2023/09/30 00:21:48;;;;;;;;;;;;;;;21.04;28.00;98033.75;4978865;28;1465;-77
2023/09/30 00:24:13;;;;;;;;;;;;;;;20.64;28.24;98028.19;4979594;28;1317;-76
2023/09/30 00:26:39;;;;;;;;;;;;;;;20.78;28.08;98024.25;4995065;28;941;-76
2023/09/30 00:29:05;;;;;;;;;;;;;;;20.95;27.99;98025.06;4995745;28;1242;-77
2023/09/30 00:31:30;;;;;;;;;;;;;;;20.66;28.30;98020.06;4979544;28;1906;-77
2023/09/30 00:33:57;;;;;;;;;;;;;;;20.74;28.18;98021.50;4979321;28;1132;-76
2023/09/30 00:36:22;;;;;;;;;;;;;;;20.80;28.04;98022.56;4975857;28;1345;-77
2023/09/30 00:38:48;;;;;;;;;;;;;;;20.84;27.98;98025.34;4976156;28;1065;-76
2023/09/30 00:41:13;;;;;;;;;;;;;;;20.85;27.80;98009.16;4958790;28;1122;-76
2023/09/30 00:43:40;;;;;;;;;;;;;;;20.62;27.97;98013.69;4963048;28;1203;-76
2023/09/30 00:46:12;;;;;;;;;;;;;;;20.69;28.13;98010.72;4978637;28;1480;-76
2023/09/30 00:48:38;;;;;;;;;;;;;;;20.97;27.80;98019.75;4963182;28;1129;-76
2023/09/30 00:51:04;;;;;;;;;;;;;;;20.49;28.24;98009.97;4995227;28;1899;-77
2023/09/30 00:53:29;;;;;;;;;;;;;;;20.67;28.00;98020.84;4975112;28;1369;-76
2023/09/30 00:55:56;;;;;;;;;;;;;;;20.94;27.65;98023.50;4944117;28;1050;-76
2023/09/30 00:58:23;;;;;;;;;;;;;;;20.75;27.76;98011.78;4959765;28;1017;-76
2023/09/30 01:00:49;;;;;;;;;;;;;;;21.00;27.65;98021.72;4960104;28;1193;-76
2023/09/30 01:03:14;;;;;;;;;;;;;;;20.98;27.39;98024.97;4943839;28;1893;-76
2023/09/30 01:05:40;;;;;;;;;;;;;;;20.81;27.99;98027.00;4921261;29;1403;-76
2023/09/30 01:08:05;;;;;;;;;;;;;;;20.94;27.50;98029.16;4955427;28;1608;-76
2023/09/30 01:10:31;;;;;;;;;;;;;;;20.73;28.07;98024.78;4976032;28;1891;-76
2023/09/30 01:12:56;;;;;;;;;;;;;;;20.73;27.90;98031.22;4995275;28;1307;-77
2023/09/30 01:15:23;;;;;;;;;;;;;;;20.94;27.42;98029.94;4963014;28;1285;-76
2023/09/30 01:17:49;;;;;;;;;;;;;;;20.84;27.59;98027.38;4978872;28;1144;-77
2023/09/30 01:20:16;;;;;;;;;;;;;;;21.06;27.29;98029.25;4978986;28;922;-77
2023/09/30 01:22:45;;;;;;;;;;;;;;;20.94;27.69;98024.28;4978161;28;1406;-76
2023/09/30 01:25:11;;;;;;;;;;;;;;;20.97;27.72;98028.25;4979048;28;993;-76
2023/09/30 01:27:36;;;;;;;;;;;;;;;20.76;27.88;98024.69;4995193;28;1023;-77
2023/09/30 01:30:02;;;;;;;;;;;;;;;21.04;27.45;98039.41;4995000;28;1981;-76
2023/09/30 01:32:28;;;;;;;;;;;;;;;21.29;27.22;98027.47;4978574;28;1069;-76
2023/09/30 01:34:54;;;;;;;;;;;;;;;20.94;27.83;98037.63;4978863;28;1341;-77
2023/09/30 01:37:19;;;;;;;;;;;;;;;20.51;28.10;98032.91;5023746;28;1344;-77
2023/09/30 01:39:45;;;;;;;;;;;;;;;20.83;27.92;98029.41;4992236;28;1177;-76
2023/09/30 01:42:11;;;;;;;;;;;;;;;20.64;28.22;98025.38;5041872;28;1367;-76
2023/09/30 01:44:36;;;;;;;;;;;;;;;20.84;27.73;98022.50;5025812;28;1131;-77
2023/09/30 01:47:02;;;;;;;;;;;;;;;20.81;28.00;98027.00;5026529;28;1351;-76
2023/09/30 01:49:27;;;;;;;;;;;;;;;20.99;27.65;98025.78;5042261;28;957;-76
2023/09/30 01:51:54;;;;;;;;;;;;;;;20.84;27.69;98024.53;5025873;28;1978;-77
2023/09/30 01:54:20;;;;;;;;;;;;;;;20.62;28.28;98018.53;5042124;28;1161;-76
2023/09/30 01:56:45;;;;;;;;;;;;;;;20.58;28.29;98021.47;5042550;28;942;-76
2023/09/30 01:59:11;;;;;;;;;;;;;;;20.78;28.02;98022.22;5009656;28;1178;-76
2023/09/30 02:01:37;;;;;;;;;;;;;;;20.80;27.85;98014.09;5026431;28;1308;-77
2023/09/30 02:04:02;;;;;;;;;;;;;;;20.90;27.77;98025.59;5001839;28;1147;-76
2023/09/30 02:06:28;;;;;;;;;;;;;;;20.77;27.75;98020.63;4984405;28;1385;-76
2023/09/30 02:08:54;;;;;;;;;;;;;;;20.84;27.94;98024.53;5018300;28;983;-76
2023/09/30 02:11:19;;;;;;;;;;;;;;;21.11;27.22;98025.09;5001830;28;1910;-76
2023/09/30 02:13:45;;;;;;;;;;;;;;;20.54;28.31;98018.72;5001643;28;1211;-76
2023/09/30 02:16:13;;;;;;;;;;;;;;;20.84;27.78;98019.69;4985628;28;1342;-76
2023/09/30 02:18:41;;;;;;;;;;;;;;;20.97;27.60;98017.72;5001597;28;948;-76
2023/09/30 02:21:07;;;;;;;;;;;;;;;20.79;27.67;98018.16;4984379;28;1713;-77
2023/09/30 02:23:33;;;;;;;;;;;;;;;20.73;28.28;98017.09;4964982;28;1383;-76
2023/09/30 02:25:58;;;;;;;;;;;;;;;20.80;27.73;98025.41;4979235;28;1061;-76
2023/09/30 02:28:24;;;;;;;;;;;;;;;20.91;28.01;98018.72;4978346;28;1076;-77
2023/09/30 02:30:49;;;;;;;;;;;;;;;20.92;27.93;98015.44;4979031;28;1976;-76
2023/09/30 02:33:15;;;;;;;;;;;;;;;20.94;27.73;98012.19;4978547;28;1378;-76
2023/09/30 02:35:45;;;;;;;;;;;;;;;20.57;28.35;98005.72;5026304;28;1828;-77
2023/09/30 02:38:11;;;;;;;;;;;;;;;20.68;28.00;98006.31;5058244;28;915;-76
2023/09/30 02:40:38;;;;;;;;;;;;;;;20.85;27.62;98003.50;5059149;28;1663;-76
2023/09/30 02:43:04;;;;;;;;;;;;;;;20.98;27.82;98001.56;5008806;28;1339;-77
2023/09/30 02:45:29;;;;;;;;;;;;;;;20.83;27.79;98000.28;5024942;28;892;-77
2023/09/30 02:47:55;;;;;;;;;;;;;;;20.37;28.79;97990.84;5041281;28;1042;-76
2023/09/30 02:50:21;;;;;;;;;;;;;;;20.41;28.68;97995.16;5020132;28;2040;-76
2023/09/30 02:52:46;;;;;;;;;;;;;;;20.89;28.16;98007.03;4961468;28;1496;-77
2023/09/30 02:55:12;;;;;;;;;;;;;;;20.76;28.43;97998.44;4976904;28;1403;-77
2023/09/30 02:57:37;;;;;;;;;;;;;;;20.78;28.09;97999.59;4944814;28;1603;-77
2023/09/30 03:02:59;;;;;;;;;;;;;;;20.70;28.47;97997.38;4919395;29;1450;-76
2023/09/30 03:05:25;;;;;;;;;;;;;;;20.73;28.39;98002.16;4920461;29;1154;-76
2023/09/30 03:07:51;;;;;;;;;;;;;;;20.60;28.33;97999.22;4920382;29;1210;-77
2023/09/30 03:10:20;;;;;;;;;;;;;;;20.67;28.34;97990.56;4920630;29;1989;-77
2023/09/30 03:12:49;;;;;;;;;;;;;;;21.03;28.06;97986.88;4920345;29;1324;-76
2023/09/30 03:15:15;;;;;;;;;;;;;;;20.78;28.37;97999.59;4920343;29;1331;-77
2023/09/30 03:17:41;;;;;;;;;;;;;;;20.51;28.57;97996.19;4896842;29;1484;-76
2023/09/30 03:20:11;;;;;;;;;;;;;;;20.73;28.43;97991.66;4870033;29;1567;-77
2023/09/30 03:22:37;;;;;;;;;;;;;;;20.76;28.24;97990.75;4864590;29;1254;-76
2023/09/30 03:25:06;;;;;;;;;;;;;;;20.50;28.65;97994.59;4882930;29;1007;-76
2023/09/30 03:27:32;;;;;;;;;;;;;;;21.12;27.93;98009.69;4882367;29;957;-77
2023/09/30 03:29:58;;;;;;;;;;;;;;;20.73;28.35;98000.13;4882229;29;1970;-77
2023/09/30 03:32:24;;;;;;;;;;;;;;;20.44;28.87;97997.09;4882659;29;891;-77
2023/09/30 03:34:52;;;;;;;;;;;;;;;20.76;28.34;97995.63;4858498;29;1652;-77
2023/09/30 03:37:17;;;;;;;;;;;;;;;20.71;28.31;98005.41;4864052;29;1130;-76
2023/09/30 03:39:43;;;;;;;;;;;;;;;21.09;28.00;97996.44;4875440;29;1052;-76
2023/09/30 03:42:11;;;;;;;;;;;;;;;20.95;27.79;97996.78;4882394;29;949;-76
2023/09/30 03:44:37;;;;;;;;;;;;;;;20.79;28.22;98006.84;4916347;29;1153;-76
2023/09/30 03:47:03;;;;;;;;;;;;;;;21.04;27.76;98002.66;4901195;29;961;-77
2023/09/30 03:49:28;;;;;;;;;;;;;;;21.00;27.80;97987.78;4932177;29;1027;-76
2023/09/30 03:51:54;;;;;;;;;;;;;;;20.74;28.27;97990.41;4970493;28;1911;-76
2023/09/30 03:54:19;;;;;;;;;;;;;;;20.84;28.34;97997.06;4976956;28;1607;-76
2023/09/30 03:56:46;;;;;;;;;;;;;;;20.79;28.25;97995.53;4977230;28;1135;-77
2023/09/30 03:59:12;;;;;;;;;;;;;;;20.70;28.13;97997.38;4925090;28;1316;-76
2023/09/30 04:01:40;;;;;;;;;;;;;;;21.13;27.81;97997.13;4957082;28;901;-76
2023/09/30 04:04:07;;;;;;;;;;;;;;;21.11;27.53;97993.97;4957945;28;1612;-76
2023/09/30 04:06:32;;;;;;;;;;;;;;;21.13;27.38;97997.13;4964396;28;1043;-76
2023/09/30 04:08:59;;;;;;;;;;;;;;;20.76;28.14;97996.41;4996091;28;966;-77
2023/09/30 04:11:25;;;;;;;;;;;;;;;20.60;28.65;98004.06;4980255;28;1894;-77
2023/09/30 04:13:50;;;;;;;;;;;;;;;20.71;28.23;97987.66;4963611;28;1087;-76
2023/09/30 04:16:18;;;;;;;;;;;;;;;20.64;28.46;97987.81;4996325;28;930;-77
2023/09/30 04:18:44;;;;;;;;;;;;;;;20.80;28.07;97994.28;4979740;28;1015;-76
2023/09/30 04:21:09;;;;;;;;;;;;;;;20.92;27.82;97997.66;4963834;28;1046;-77
2023/09/30 04:23:38;;;;;;;;;;;;;;;20.73;28.25;97994.47;4978616;28;1119;-76
2023/09/30 04:26:05;;;;;;;;;;;;;;;20.67;28.21;97993.38;4969262;28;1271;-77
2023/09/30 04:28:30;;;;;;;;;;;;;;;20.72;28.49;97995.69;4947408;29;1439;-76
2023/09/30 04:30:56;;;;;;;;;;;;;;;20.70;28.44;98001.00;4926196;29;1899;-77
2023/09/30 04:33:24;;;;;;;;;;;;;;;20.82;28.46;97999.50;4947603;29;1535;-76
2023/09/30 04:35:49;;;;;;;;;;;;;;;20.89;28.23;98001.38;4980495;28;1495;-77
2023/09/30 04:38:15;;;;;;;;;;;;;;;20.90;28.12;98000.16;4995493;28;1503;-76
2023/09/30 04:40:44;;;;;;;;;;;;;;;20.72;28.19;98001.34;4979350;28;1496;-76
2023/09/30 04:43:10;;;;;;;;;;;;;;;20.83;28.46;98005.94;4994754;28;1543;-76
2023/09/30 04:45:36;;;;;;;;;;;;;;;20.82;28.41;97991.03;4979305;28;929;-77
2023/09/30 04:48:02;;;;;;;;;;;;;;;21.00;28.01;98002.72;4995849;28;987;-76
2023/09/30 04:50:30;;;;;;;;;;;;;;;20.58;28.77;97995.25;4995836;28;1906;-77
2023/09/30 04:52:57;;;;;;;;;;;;;;;20.57;28.83;98004.94;4963016;28;1753;-78
2023/09/30 04:55:23;;;;;;;;;;;;;;;20.57;28.93;98005.72;4978774;28;1522;-77
2023/09/30 04:57:49;;;;;;;;;;;;;;;20.64;28.70;98008.41;4979205;28;947;-77
2023/09/30 05:00:15;;;;;;;;;;;;;;;20.65;28.88;98012.81;5012224;28;956;-77
2023/09/30 05:02:40;;;;;;;;;;;;;;;20.49;29.26;98015.63;5019046;28;897;-77
2023/09/30 05:05:06;;;;;;;;;;;;;;;20.75;28.77;98017.44;5019184;28;1070;-77
2023/09/30 05:07:32;;;;;;;;;;;;;;;20.93;28.46;98016.22;5019399;28;944;-77
2023/09/30 05:09:57;;;;;;;;;;;;;;;20.80;28.89;98013.31;5034785;28;1910;-77
2023/09/30 05:12:23;;;;;;;;;;;;;;;20.62;29.39;98019.34;5018700;28;1522;-77
2023/09/30 05:14:48;;;;;;;;;;;;;;;20.77;28.79;98014.97;5000590;28;1656;-77
2023/09/30 05:17:14;;;;;;;;;;;;;;;20.80;29.00;98019.75;5005054;28;1628;-77
2023/09/30 05:19:39;;;;;;;;;;;;;;;21.08;28.58;98028.78;5011983;28;1545;-77
2023/09/30 05:22:05;;;;;;;;;;;;;;;21.24;28.32;98028.00;5009490;28;1687;-77
2023/09/30 05:24:30;;;;;;;;;;;;;;;20.88;28.58;98030.88;5008808;28;1498;-77
2023/09/30 05:26:56;;;;;;;;;;;;;;;20.91;28.57;98033.63;4982141;28;1120;-77
2023/09/30 05:29:22;;;;;;;;;;;;;;;20.92;28.62;98037.25;4981903;28;1215;-78
2023/09/30 05:31:48;;;;;;;;;;;;;;;21.05;28.33;98035.34;4997877;28;1914;-78
2023/09/30 05:34:13;;;;;;;;;;;;;;;21.06;28.24;98037.72;4998162;28;985;-78
2023/09/30 05:36:39;;;;;;;;;;;;;;;21.01;28.52;98045.94;5014675;28;1038;-78
2023/09/30 05:39:04;;;;;;;;;;;;;;;20.79;29.09;98045.66;4998118;28;946;-78
2023/09/30 05:41:30;;;;;;;;;;;;;;;21.05;28.48;98038.97;4981874;28;1248;-78
2023/09/30 05:43:56;;;;;;;;;;;;;;;21.06;28.43;98051.06;4998107;28;992;-78
2023/09/30 05:46:22;;;;;;;;;;;;;;;21.01;28.67;98045.94;5027896;28;952;-78
2023/09/30 05:48:47;;;;;;;;;;;;;;;20.84;28.97;98047.16;5056009;28;1055;-78
2023/09/30 05:51:15;;;;;;;;;;;;;;;20.95;28.92;98059.81;5056130;28;1979;-78
2023/09/30 05:53:41;;;;;;;;;;;;;;;20.79;29.24;98063.41;5056145;28;964;-78
2023/09/30 05:56:14;;;;;;;;;;;;;;;20.90;28.78;98059.53;5056097;28;1017;-78
2023/09/30 05:58:41;;;;;;;;;;;;;;;20.99;28.95;98059.75;5056040;28;1069;-78
2023/09/30 06:01:18;;;;;;;;;;;;;;;21.08;28.65;98068.41;5038263;28;970;-78
2023/09/30 06:03:46;;;;;;;;;;;;;;;21.08;28.87;98074.06;5055920;28;915;-78
2023/09/30 06:06:15;;;;;;;;;;;;;;;20.81;29.24;98062.97;5022175;28;1217;-78
2023/09/30 06:08:47;;;;;;;;;;;;;;;20.80;29.11;98070.66;5055921;28;1002;-78
2023/09/30 06:11:24;;;;;;;;;;;;;;;20.84;29.08;98070.59;5055671;28;1918;-78
2023/09/30 06:13:50;;;;;;;;;;;;;;;20.88;29.02;98064.81;5055424;28;939;-78
2023/09/30 06:16:16;;;;;;;;;;;;;;;20.74;29.44;98072.41;5038419;28;911;-78
2023/09/30 06:18:42;;;;;;;;;;;;;;;20.84;29.60;98081.09;5038284;28;857;-78
2023/09/30 06:21:10;;;;;;;;;;;;;;;20.65;29.62;98063.72;5056171;28;861;-78
2023/09/30 06:23:35;;;;;;;;;;;;;;;21.09;28.84;98075.66;5022352;28;1106;-78
2023/09/30 06:26:02;;;;;;;;;;;;;;;20.84;29.46;98075.44;5041774;28;1060;-78
2023/09/30 06:28:31;;;;;;;;;;;;;;;20.78;29.65;98078.00;5058858;28;941;-77
2023/09/30 06:30:56;;;;;;;;;;;;;;;20.89;29.54;98078.53;5059426;28;1969;-78
2023/09/30 06:33:22;;;;;;;;;;;;;;;20.66;30.11;98082.25;5059183;28;971;-77
2023/09/30 06:35:50;;;;;;;;;;;;;;;21.10;29.18;98077.25;5059178;28;1223;-78
2023/09/30 06:38:19;;;;;;;;;;;;;;;21.13;29.02;98082.03;5041966;28;1126;-78
2023/09/30 06:40:46;;;;;;;;;;;;;;;20.91;29.41;98069.63;5041218;28;942;-78
2023/09/30 06:43:12;;;;;;;;;;;;;;;20.65;29.88;98072.19;5041840;28;852;-78
2023/09/30 06:45:41;;;;;;;;;;;;;;;20.72;29.73;98086.16;5040960;28;941;-78
2023/09/30 06:48:07;;;;;;;;;;;;;;;20.78;29.74;98083.66;5058829;28;896;-78
2023/09/30 06:50:33;;;;;;;;;;;;;;;20.56;30.14;98077.63;5041372;28;1902;-78
2023/09/30 06:52:59;;;;;;;;;;;;;;;20.70;30.11;98077.34;5058836;28;961;-78
2023/09/30 06:55:27;;;;;;;;;;;;;;;21.03;29.56;98083.06;5058958;28;1130;-78
2023/09/30 06:57:52;;;;;;;;;;;;;;;21.08;29.69;98085.38;5008412;28;1033;-78
2023/09/30 07:00:18;;;;;;;;;;;;;;;21.04;29.68;98079.03;5059199;28;925;-78
2023/09/30 07:02:44;;;;;;;;;;;;;;;21.08;29.69;98091.03;5058774;28;853;-78
2023/09/30 07:05:13;;;;;;;;;;;;;;;20.85;30.37;98089.13;5058698;28;1183;-78
2023/09/30 07:07:39;;;;;;;;;;;;;;;20.84;30.44;98081.91;5040773;28;911;-78
2023/09/30 07:10:08;;;;;;;;;;;;;;;21.05;29.97;98086.25;5058540;28;1906;-78
2023/09/30 07:12:35;;;;;;;;;;;;;;;20.97;30.19;98096.13;5040874;28;1038;-78
2023/09/30 07:15:04;;;;;;;;;;;;;;;20.86;30.39;98098.41;5041237;28;959;-78
2023/09/30 07:17:30;;;;;;;;;;;;;;;20.97;30.20;98098.97;5041014;28;941;-77
2023/09/30 07:19:56;;;;;;;;;;;;;;;20.94;30.50;98097.03;5041223;28;962;-77
2023/09/30 07:22:21;;;;;;;;;;;;;;;20.85;30.50;98094.00;5058810;28;1025;-78
2023/09/30 07:24:47;;;;;;;;;;;;;;;20.86;30.52;98095.59;5006927;28;939;-78
2023/09/30 07:27:12;;;;;;;;;;;;;;;20.96;30.44;98100.22;5058335;28;905;-78
2023/09/30 07:29:38;;;;;;;;;;;;;;;21.00;30.25;98100.94;5040471;28;1510;-78
2023/09/30 07:32:04;;;;;;;;;;;;;;;21.08;30.20;98102.34;5040592;28;1906;-78
2023/09/30 07:34:30;;;;;;;;;;;;;;;21.17;30.20;98101.75;5057861;28;968;-78
2023/09/30 07:36:55;;;;;;;;;;;;;;;21.12;30.46;98097.41;5024358;28;909;-78
2023/09/30 07:39:21;;;;;;;;;;;;;;;21.04;30.45;98107.31;5040466;28;1119;-78
2023/09/30 07:41:46;;;;;;;;;;;;;;;20.85;30.73;98105.31;5058021;28;993;-78
2023/09/30 07:44:12;;;;;;;;;;;;;;;21.02;30.66;98101.28;5040589;28;964;-79
2023/09/30 07:46:37;;;;;;;;;;;;;;;21.11;30.45;98095.81;5040186;28;953;-78
2023/09/30 07:49:03;;;;;;;;;;;;;;;21.19;30.08;98097.25;5058056;28;896;-78
2023/09/30 07:51:29;;;;;;;;;;;;;;;21.01;30.36;98102.53;5057756;28;1906;-78
2023/09/30 07:53:55;;;;;;;;;;;;;;;21.13;30.12;98107.47;5023449;28;1125;-78
2023/09/30 07:56:21;;;;;;;;;;;;;;;21.05;30.65;98103.25;5039850;28;1360;-78
2023/09/30 07:58:48;;;;;;;;;;;;;;;20.73;30.79;98099.09;5039979;28;886;-78
2023/09/30 08:01:14;;;;;;;;;;;;;;;20.91;30.61;98112.03;5057804;28;842;-78
2023/09/30 08:03:40;;;;;;;;;;;;;;;21.23;30.09;98114.94;5057415;28;930;-78
2023/09/30 08:06:07;;;;;;;;;;;;;;;21.34;30.16;98109.03;5036547;28;1033;-77
2023/09/30 08:08:33;;;;;;;;;;;;;;;21.08;30.37;98113.66;5036445;28;1142;-77
2023/09/30 08:10:59;;;;;;;;;;;;;;;21.17;30.54;98128.00;5036826;28;1909;-76
2023/09/30 08:13:25;;;;;;;;;;;;;;;21.04;30.50;98116.59;4998413;28;990;-76
2023/09/30 08:15:51;;;;;;;;;;;;;;;21.08;30.30;98108.81;5015976;28;974;-76
2023/09/30 08:18:17;;;;;;;;;;;;;;;21.16;30.54;98103.78;4998850;28;1053;-76
2023/09/30 08:20:43;;;;;;;;;;;;;;;21.19;30.45;98114.25;4999292;28;1066;-76
2023/09/30 08:23:09;;;;;;;;;;;;;;;21.13;30.46;98115.19;4995169;28;1143;-76
2023/09/30 08:25:34;;;;;;;;;;;;;;;20.90;30.67;98116.91;4979372;28;1004;-76
2023/09/30 08:28:00;;;;;;;;;;;;;;;21.05;30.44;98106.88;4979283;28;1017;-76
2023/09/30 08:30:25;;;;;;;;;;;;;;;20.95;30.69;98098.63;4979588;28;1931;-76
2023/09/30 08:32:52;;;;;;;;;;;;;;;21.16;30.52;98097.34;4979506;28;1963;-76
2023/09/30 08:35:18;;;;;;;;;;;;;;;21.29;30.40;98113.16;4979225;28;1180;-76
2023/09/30 08:37:44;;;;;;;;;;;;;;;21.02;30.90;98104.09;4963355;28;1089;-76
2023/09/30 08:40:09;;;;;;;;;;;;;;;21.31;30.41;98099.41;4979245;28;1289;-76
2023/09/30 08:42:35;;;;;;;;;;;;;;;21.04;30.56;98110.13;4978881;28;959;-76
2023/09/30 08:45:01;;;;;;;;;;;;;;;20.81;31.04;98100.53;4978011;28;1038;-76
2023/09/30 08:47:29;;;;;;;;;;;;;;;20.81;30.94;98096.91;4998253;28;1307;-76
2023/09/30 08:49:57;;;;;;;;;;;;;;;21.03;30.49;98100.84;4998633;28;979;-76
2023/09/30 08:52:23;;;;;;;;;;;;;;;21.43;30.17;98088.63;5014790;28;999;-76
2023/09/30 08:54:48;;;;;;;;;;;;;;;21.24;30.17;98093.09;5014654;28;1017;-77
2023/09/30 08:57:14;;;;;;;;;;;;;;;21.22;30.46;98090.72;4998331;28;1006;-76
2023/09/30 08:59:40;;;;;;;;;;;;;;;20.89;30.96;98100.38;4984812;28;1100;-76
2023/09/30 09:02:09;;;;;;;;;;;;;;;21.02;30.60;98092.78;5019529;28;992;-76
2023/09/30 09:04:35;;;;;;;;;;;;;;;20.87;30.90;98103.63;4978843;28;1052;-77
2023/09/30 09:07:00;;;;;;;;;;;;;;;20.98;30.80;98092.06;4994667;28;1217;-76
2023/09/30 09:09:26;;;;;;;;;;;;;;;21.28;30.59;98105.91;4978722;28;983;-77
2023/09/30 09:11:51;;;;;;;;;;;;;;;20.99;30.73;98102.19;4978493;28;1907;-78
2023/09/30 09:14:17;;;;;;;;;;;;;;;21.08;30.74;98103.13;4962751;28;1405;-77
2023/09/30 09:16:55;;;;;;;;;;;;;;;21.26;30.56;98105.56;4995237;28;962;-77
2023/09/30 09:19:21;;;;;;;;;;;;;;;21.40;30.03;98098.00;4943146;28;1045;-78
2023/09/30 09:21:56;;;;;;;;;;;;;;;21.37;30.25;98096.06;4943724;28;1124;-77
2023/09/30 09:24:34;;;;;;;;;;;;;;;21.35;30.26;98098.53;4943037;28;1202;-77
2023/09/30 09:27:22;;;;;;;;;;;;;;;20.94;30.79;98097.03;4959328;28;1036;-78
2023/09/30 09:29:48;;;;;;;;;;;;;;;21.32;30.18;98089.69;4975458;28;971;-77
2023/09/30 09:32:14;;;;;;;;;;;;;;;20.98;31.19;98080.75;4959313;28;1918;-78
2023/09/30 09:34:40;;;;;;;;;;;;;;;21.27;30.41;98087.34;4950632;28;1040;-78
2023/09/30 09:37:15;;;;;;;;;;;;;;;21.16;30.87;98083.97;5001022;28;999;-77
2023/09/30 09:39:50;;;;;;;;;;;;;;;21.21;30.50;98083.47;5017782;28;974;-77
2023/09/30 09:42:26;;;;;;;;;;;;;;;21.06;30.80;98087.84;5017252;28;1927;-78
2023/09/30 09:44:55;;;;;;;;;;;;;;;21.32;30.71;98092.50;4999635;28;1507;-77
2023/09/30 09:47:21;;;;;;;;;;;;;;;20.91;31.37;98086.59;4998677;28;1585;-77
2023/09/30 09:49:46;;;;;;;;;;;;;;;21.03;31.15;98083.06;5020107;28;1585;-77
2023/09/30 09:52:12;;;;;;;;;;;;;;;21.34;30.68;98080.75;5035291;28;1984;-77
2023/09/30 09:54:37;;;;;;;;;;;;;;;21.27;30.41;98070.38;5018635;28;1575;-77
2023/09/30 09:57:03;;;;;;;;;;;;;;;21.17;30.87;98076.28;5018587;28;878;-77
2023/09/30 09:59:29;;;;;;;;;;;;;;;21.33;30.63;98088.44;5004046;28;1359;-78
2023/09/30 10:01:54;;;;;;;;;;;;;;;21.10;30.88;98070.81;5038938;28;912;-77
2023/09/30 10:04:20;;;;;;;;;;;;;;;21.13;30.96;98075.56;5038981;28;968;-78
2023/09/30 10:06:48;;;;;;;;;;;;;;;21.38;30.58;98092.00;5038676;28;1273;-78
2023/09/30 10:09:13;;;;;;;;;;;;;;;21.20;30.59;98087.53;5022803;28;1001;-78
2023/09/30 10:11:40;;;;;;;;;;;;;;;21.17;30.72;98077.06;5038519;28;1985;-77
2023/09/30 10:14:11;;;;;;;;;;;;;;;21.38;30.50;98058.03;5038612;28;937;-77
2023/09/30 10:16:37;;;;;;;;;;;;;;;21.51;30.34;98067.41;5038861;28;1663;-78
2023/09/30 10:19:08;;;;;;;;;;;;;;;21.06;30.95;98066.00;5039540;28;909;-77
2023/09/30 10:21:34;;;;;;;;;;;;;;;21.00;31.19;98067.00;5039630;28;1144;-77
2023/09/30 10:24:18;;;;;;;;;;;;;;;21.29;30.70;98056.56;5000900;28;1230;-78
2023/09/30 10:26:43;;;;;;;;;;;;;;;21.00;31.26;98055.66;5017447;28;998;-78
2023/09/30 10:29:09;;;;;;;;;;;;;;;21.09;31.19;98064.34;5001383;28;956;-77
2023/09/30 10:31:35;;;;;;;;;;;;;;;21.27;30.77;98052.59;5001304;28;1918;-77
2023/09/30 10:34:00;;;;;;;;;;;;;;;21.17;30.92;98051.63;5014460;28;1005;-77
2023/09/30 10:36:29;;;;;;;;;;;;;;;21.20;30.97;98059.22;5001008;28;1140;-77
2023/09/30 10:38:55;;;;;;;;;;;;;;;21.21;30.86;98052.34;5000786;28;910;-78
2023/09/30 10:41:38;;;;;;;;;;;;;;;21.31;31.00;98065.47;5017160;28;965;-78
2023/09/30 10:44:22;;;;;;;;;;;;;;;21.36;30.53;98072.63;5016855;28;1049;-77
2023/09/30 10:47:11;;;;;;;;;;;;;;;21.03;31.00;98066.09;5017211;28;1227;-77
2023/09/30 10:49:38;;;;;;;;;;;;;;;21.28;30.86;98060.63;4958262;29;986;-77
2023/09/30 10:52:04;;;;;;;;;;;;;;;21.25;30.94;98053.03;4943068;29;1902;-77
2023/09/30 10:54:30;;;;;;;;;;;;;;;21.41;30.43;98054.31;4969994;28;1033;-78
2023/09/30 10:56:56;;;;;;;;;;;;;;;21.27;30.71;98053.38;4981148;28;1038;-78
2023/09/30 10:59:22;;;;;;;;;;;;;;;21.49;30.25;98058.53;4964833;28;1031;-76
2023/09/30 11:01:48;;;;;;;;;;;;;;;21.35;30.57;98059.72;4964926;28;1211;-78
2023/09/30 11:04:15;;;;;;;;;;;;;;;21.44;30.39;98048.53;4997155;28;1090;-77
2023/09/30 11:06:41;;;;;;;;;;;;;;;21.32;30.58;98050.06;4980760;28;1051;-77
2023/09/30 11:09:12;;;;;;;;;;;;;;;21.50;30.45;98048.81;4980813;28;976;-77
2023/09/30 11:11:39;;;;;;;;;;;;;;;21.26;30.83;98057.47;4981477;28;1906;-77
2023/09/30 11:14:25;;;;;;;;;;;;;;;21.41;30.74;98045.81;4981190;28;1003;-77
2023/09/30 11:16:52;;;;;;;;;;;;;;;21.30;30.81;98046.88;4996786;28;1064;-78
2023/09/30 11:19:20;;;;;;;;;;;;;;;21.59;30.41;98057.47;4980902;28;1038;-77
2023/09/30 11:21:46;;;;;;;;;;;;;;;21.24;31.09;98054.28;4981444;28;1068;-78
2023/09/30 11:24:13;;;;;;;;;;;;;;;21.17;31.24;98054.44;4980559;28;1350;-78
2023/09/30 11:26:41;;;;;;;;;;;;;;;21.44;30.68;98050.59;5009111;28;899;-78
2023/09/30 11:29:13;;;;;;;;;;;;;;;21.27;30.98;98042.06;5020201;28;1250;-77
2023/09/30 11:31:46;;;;;;;;;;;;;;;21.40;30.59;98045.03;5038312;28;1902;-78
2023/09/30 11:34:12;;;;;;;;;;;;;;;21.24;31.03;98059.94;5038242;28;984;-78
2023/09/30 11:36:39;;;;;;;;;;;;;;;21.45;30.77;98036.00;5038272;28;1005;-78
2023/09/30 11:39:05;;;;;;;;;;;;;;;21.37;30.78;98042.28;5020239;28;1007;-78
2023/09/30 11:41:34;;;;;;;;;;;;;;;21.48;30.54;98034.31;5036970;28;930;-77
2023/09/30 11:44:01;;;;;;;;;;;;;;;21.51;30.75;98022.13;5036603;28;1038;-78
2023/09/30 11:46:27;;;;;;;;;;;;;;;21.30;30.75;98027.06;5036023;28;918;-78
2023/09/30 11:48:57;;;;;;;;;;;;;;;21.32;30.74;98018.13;5004140;28;1244;-78
2023/09/30 11:51:26;;;;;;;;;;;;;;;21.44;30.77;98014.56;5036697;28;1898;-76
2023/09/30 11:53:53;;;;;;;;;;;;;;;21.28;31.23;98021.00;5020290;28;911;-75
2023/09/30 11:56:19;;;;;;;;;;;;;;;21.35;30.86;98020.09;5036493;28;920;-75
2023/09/30 11:58:45;;;;;;;;;;;;;;;21.21;31.13;98020.41;5019784;28;860;-76
2023/09/30 12:01:13;;;;;;;;;;;;;;;21.54;30.82;98018.38;5020547;28;1208;-75
2023/09/30 12:03:39;;;;;;;;;;;;;;;21.49;30.67;98018.91;5020354;28;1014;-75
2023/09/30 12:06:13;;;;;;;;;;;;;;;21.39;30.71;98008.66;5020162;28;1044;-75
2023/09/30 12:08:42;;;;;;;;;;;;;;;21.49;30.64;98013.25;5036635;28;947;-76
2023/09/30 12:11:07;;;;;;;;;;;;;;;21.26;31.08;98017.84;5037546;28;1906;-75
2023/09/30 12:13:33;;;;;;;;;;;;;;;21.59;30.49;98006.50;5036455;28;1035;-76
2023/09/30 12:15:58;;;;;;;;;;;;;;;21.65;30.53;97998.28;5037666;28;957;-75
2023/09/30 12:18:24;;;;;;;;;;;;;;;21.34;31.13;98004.31;5035982;28;1050;-75
2023/09/30 12:20:51;;;;;;;;;;;;;;;21.56;30.45;98002.56;5019446;28;913;-75
2023/09/30 12:23:17;;;;;;;;;;;;;;;21.67;30.45;97990.94;5019409;28;1191;-76
2023/09/30 12:25:43;;;;;;;;;;;;;;;21.45;30.64;97998.38;5019719;28;1066;-76
2023/09/30 12:28:09;;;;;;;;;;;;;;;21.29;31.00;97994.31;5036291;28;1144;-75
2023/09/30 12:30:34;;;;;;;;;;;;;;;21.44;30.70;97999.63;5035670;28;2017;-75
2023/09/30 12:33:00;;;;;;;;;;;;;;;21.37;31.03;98013.97;5018847;28;947;-75
2023/09/30 12:35:26;;;;;;;;;;;;;;;21.13;31.24;98002.78;5035972;28;1016;-76
2023/09/30 12:37:51;;;;;;;;;;;;;;;21.03;31.56;97998.19;5035905;28;1017;-75
2023/09/30 12:40:18;;;;;;;;;;;;;;;21.24;31.25;97986.38;5019278;28;1295;-75
2023/09/30 12:42:44;;;;;;;;;;;;;;;21.56;30.68;97991.22;5035678;28;1062;-75
2023/09/30 12:45:10;;;;;;;;;;;;;;;21.44;30.55;97988.31;5035900;28;966;-75
2023/09/30 12:47:35;;;;;;;;;;;;;;;21.37;30.99;97988.50;5035618;28;1182;-76
2023/09/30 12:50:01;;;;;;;;;;;;;;;21.37;30.71;97977.19;5035603;28;1005;-75
2023/09/30 12:52:27;;;;;;;;;;;;;;;21.21;31.06;97975.13;5035630;28;1902;-75
2023/09/30 12:54:52;;;;;;;;;;;;;;;21.76;30.26;97993.94;5037011;28;1097;-75
2023/09/30 12:57:19;;;;;;;;;;;;;;;21.61;30.22;97974.94;5035824;28;906;-75
2023/09/30 12:59:49;;;;;;;;;;;;;;;21.64;30.19;97979.69;5035449;28;962;-75
2023/09/30 13:02:14;;;;;;;;;;;;;;;21.58;30.41;97970.94;5036613;28;873;-74